Sign up and join Nationwide Bicycle Commuters on RideNet.

   Join RideNet...   

Learn more about RideNet...

Special Thanks To

The Columbus Foundation

RideNet iPhone App

Available in the App Store

Incentives and Prizes

RideNet Clothing

Available @ Paradise Garage

Most-Viewed Rider

Jeff Shirazi (2)

Nationwide Bicycle Commuters is a partner of 2 BY 2012

The goal of 2 BY 2012 is for each citizen of central Ohio to bicycle to work or school, or run an errand by bike, two days a month by the Columbus bicentennial in 2012.

2 BY 2012 is both a challenge and a movement. As citizens of Columbus rise to the challenge and change the way we get to work, we can start a movement that will significantly benefit our lives, our economy and our community. Join the movement today by going to 'Your Profile', updating your rider bio and logging your first ride! Then get on your bike and spread the word. When we ride, we make a difference.
This is a sample home page and stock photo. You can customize your homepage and upload a new photo using the Team Manager
 Login To Post Message 

What's happening @ Nationwide Bicycle Commuters

To log a ride or post a race result, go to Your Profile. To post a message on this page, click "Post Message".
Monday, Nov 27 • 16 days ago
670 Trail. METAR KOSU 271553Z 00000KT 10SM CLR 09/01 A3017 RMK AO2 SLP223 T00890006  10 mile commute
Tuesday, Nov 14 • 29 days ago
670 Trail. METAR KOSU 141953Z VRB03KT 10SM CLR 08/M01 A3029 RMK AO2 SLP264 T00781006  10 mile commute
Monday, Sep 11 • 93 days ago
670 Trail  10 mile commute
Tuesday, Sep 5 • 99 days ago
670 Trail  10 mile commute
Monday, Jun 19 • 177 days ago
Burr Goodale Trail. METAR KOSU 191653Z 27013G20KT 10SM SCT060 26/14 A2987 RMK AO2 SLP109 T02610144  10 mile commute
Tuesday, Jun 13 • 183 days ago
670 Trail  10 mile commute
Thursday, Jun 8 • 188 days ago
Riding with Daria to Architecture Camp  15 mile commute
Tuesday, Jun 6 • 190 days ago
Riding with Daria to Architecture Camp  15 mile commute
Thursday, Jun 1 • 195 days ago
670 Trail  5 mile commute
Tuesday, May 30 • 197 days ago
670 Trail  5 mile commute
May 8, 2017 • 219 days ago
670 Trail  5 mile commute
From work downtown to Hills market. 55 minutes north, with 15kt wind from 300.  28 mile workout
May 2, 2017 • 225 days ago
670 Trail  10 mile commute
April 25, 2017 • 232 days ago
670 Trail  10 mile commute
November 7, 2016
670 Trail  10 mile commute
July 19, 2016
670 Trail METAR KOSU 191453Z 00000KT 10SM CLR 27/18 A3025 RMK AO2 SLP238 T02670183  10 mile commute
June 30, 2016
670 Trail METAR KOSU 301653Z 05004KT 10SM CLR 25/10 A3005 RMK AO2 SLP173 T02500100  10 mile commute
June 19, 2016
With the fam, headed down to NorthBank and Bicentennial parks splash pads. Then, to Barley's for early dinner.  9 mile social
June 14, 2016
670 Trail METAR KOSU 141453Z 10008KT 10SM CLR 23/11 A3001 RMK AO2 SLP156 T0233011  10 mile commute
June 13, 2016
Goodale Connector METAR KOSU 131253Z 10007KT 10SM CLR 17/09 A3010  10 mile commute
June 12, 2016
To Jason's Deli with the offspring for lunch. Cardigan, trail, Goodale connector, back to the Yard.  9 mile social
June 10, 2016
5th ave then trail. METAR KOSU 101153Z 16004KT 10SM OVC080 19/13 A3007 RMK AO2 SLP179  12 mile commute
Goodale Connector  10 mile commute
June 7, 2016
Goodale Connector  10 mile commute
June 3, 2016
METAR KOSU 031253Z 36005KT 10SM FEW065 21/15 A3006 RMK AO2 SLP174 T021101507 Goodale Connector  10 mile commute
April 21, 2016
METAR KOSU 211853Z 20006KT 10SM FEW070 OVC090 21/12 A2991 RMK AO2 RAB09E20 SLP124 P0000 T02110117 Goodale Connector  10 mile commute
February 4, 2016
  11 mile commute
February 1, 2016
  11 mile commute
September 4, 2015
METAR KOSU 041153Z 16007KT 10SM CLR 21/19 A3005 RMK AO2 LTG DSNT Grandview/670  10 mile commute
August 27, 2015
METAR KOSU 271753Z 08004KT 10SM SCT040 BKN060 22/13 A301 Grandview/670  10 mile commute
GET MORE